Terminal Aerodrome Forecast
Issued by NWS

Home | Current Version | Previous Version | Text Only | Print | Product List | Glossary On
Versions: 1 2 3 4 5 6 7 8 9 10 11 12 13 14 15 16 17 18 19
000
FTUS43 KLSX 201446 AAC
TAFCPS
TAF AMD
KCPS 201446Z 2015/2112 VRB03KT P6SM VCTS SCT030CB BKN120
      TEMPO 2015/2016 34012G20KT 3SM -TSRA BKN020CB
     FM201600 12010KT P6SM SCT040 BKN250
     FM201800 16007KT P6SM SCT050=

USA.gov is the U.S. government's official web portal to all federal, state and local government web resources and services.